METAR Data
IDs: Format: Raw Decoded Include TAF

Data at: 0743 UTC 01 Aug 2021

EDDB 010720Z 25006KT 220V280 9999 FEW018 17/13 Q1008 NOSIG